createdAt,value
2023-01-28T00:02:25.201Z,4.10
2023-01-28T00:04:51.400Z,5.37
2023-01-28T00:07:18.388Z,5.17
2023-01-28T00:09:45.123Z,6.73
2023-01-28T00:12:11.247Z,6.77
2023-01-28T00:14:37.365Z,5.73
2023-01-28T00:17:04.954Z,6.47
2023-01-28T00:19:31.082Z,6.47
2023-01-28T00:21:57.178Z,5.57
2023-01-28T00:24:23.325Z,6.67
2023-01-28T00:26:50.650Z,6.50
2023-01-28T00:29:16.835Z,7.07
2023-01-28T00:31:43.003Z,6.03
2023-01-28T00:34:09.210Z,6.73
2023-01-28T00:36:38.669Z,11.07
2023-01-28T00:39:05.794Z,8.43
2023-01-28T00:41:32.046Z,14.77
2023-01-28T00:43:58.913Z,10.80
2023-01-28T00:46:25.638Z,9.80
2023-01-28T00:48:52.164Z,8.67
2023-01-28T00:51:19.370Z,11.20
2023-01-28T00:53:45.659Z,10.17
2023-01-28T00:56:13.600Z,12.30
2023-01-28T00:58:39.722Z,10.40
2023-01-28T01:01:10.973Z,12.40
2023-01-28T01:03:37.554Z,10.50
2023-01-28T01:06:04.314Z,11.60
2023-01-28T01:08:34.346Z,10.80
2023-01-28T01:11:00.993Z,12.10
2023-01-28T01:13:27.109Z,13.23
2023-01-28T01:16:01.396Z,10.20
2023-01-28T01:18:28.259Z,10.00
2023-01-28T01:20:58.032Z,11.53
2023-01-28T01:23:25.253Z,9.93
2023-01-28T01:25:51.379Z,9.80
2023-01-28T01:28:17.481Z,8.43
2023-01-28T01:30:43.665Z,8.60
2023-01-28T01:33:09.798Z,11.60
2023-01-28T01:35:36.558Z,11.60
2023-01-28T01:38:02.749Z,8.37
2023-01-28T01:40:29.271Z,8.00
2023-01-28T01:42:55.375Z,6.03
2023-01-28T01:45:21.642Z,8.07
2023-01-28T01:47:52.752Z,8.93
2023-01-28T01:50:25.257Z,7.97
2023-01-28T01:52:57.129Z,9.33
2023-01-28T01:55:24.573Z,7.43
2023-01-28T01:57:52.336Z,6.67
2023-01-28T02:00:18.887Z,10.23
2023-01-28T02:02:47.190Z,7.37
2023-01-28T02:05:16.320Z,6.90
2023-01-28T02:07:43.182Z,11.47
2023-01-28T02:10:11.537Z,6.60
2023-01-28T02:12:40.352Z,6.77
2023-01-28T02:15:11.481Z,8.10
2023-01-28T02:17:37.705Z,6.67
2023-01-28T02:20:06.316Z,6.77
2023-01-28T02:23:08.609Z,9.30
2023-01-28T02:26:12.842Z,6.47
2023-01-28T02:28:45.233Z,6.80
2023-01-28T02:31:15.919Z,8.03
2023-01-28T02:33:47.780Z,7.63
2023-01-28T02:36:18.464Z,6.33
2023-01-28T02:38:47.731Z,7.53
2023-01-28T02:41:19.330Z,5.63
2023-01-28T02:43:46.988Z,8.27
2023-01-28T02:46:52.334Z,8.37
2023-01-28T02:49:22.151Z,7.23
2023-01-28T02:51:57.489Z,7.53
2023-01-28T02:54:33.213Z,7.37
2023-01-28T02:57:09.230Z,7.80
2023-01-28T02:59:40.886Z,8.13
2023-01-28T03:02:12.532Z,9.53
2023-01-28T03:04:43.329Z,7.70
2023-01-28T03:07:11.423Z,10.00
2023-01-28T03:09:39.368Z,12.27
2023-01-28T03:12:25.158Z,12.77
2023-01-28T03:15:14.283Z,11.53
2023-01-28T03:18:04.795Z,13.13
2023-01-28T03:20:54.318Z,15.00
2023-01-28T03:23:41.284Z,14.27
2023-01-28T03:26:27.185Z,14.00
2023-01-28T03:29:12.605Z,17.57
2023-01-28T03:31:57.728Z,20.90
2023-01-28T03:34:42.182Z,22.50
2023-01-28T03:37:08.978Z,20.33
2023-01-28T03:39:35.564Z,22.83
2023-01-28T03:42:03.493Z,30.97
2023-01-28T03:44:47.796Z,24.43
2023-01-28T03:47:14.988Z,28.40
2023-01-28T03:49:41.701Z,25.83
2023-01-28T03:52:08.125Z,28.57
2023-01-28T03:54:34.268Z,28.60
2023-01-28T03:57:00.394Z,26.93
2023-01-28T03:59:26.483Z,28.93
2023-01-28T04:01:52.710Z,22.17
2023-01-28T04:04:23.910Z,26.93
2023-01-28T04:06:51.135Z,23.57
2023-01-28T04:09:17.327Z,21.20
2023-01-28T04:11:43.469Z,23.63
2023-01-28T04:14:09.693Z,21.63
2023-01-28T04:16:35.953Z,23.20
2023-01-28T04:19:02.113Z,20.43
2023-01-28T04:21:28.825Z,24.70
2023-01-28T04:23:54.993Z,20.27
2023-01-28T04:26:21.131Z,22.97
2023-01-28T04:28:47.309Z,17.73
2023-01-28T04:31:13.476Z,18.50
2023-01-28T04:33:39.626Z,21.47
2023-01-28T04:36:05.902Z,19.23
2023-01-28T04:38:32.659Z,20.03
2023-01-28T04:40:58.889Z,20.50
2023-01-28T04:43:25.065Z,16.00
2023-01-28T04:45:51.205Z,17.67
2023-01-28T04:48:17.338Z,19.03
2023-01-28T04:50:43.984Z,15.63
2023-01-28T04:53:10.147Z,19.07
2023-01-28T04:55:36.924Z,16.07
2023-01-28T04:58:03.394Z,15.30
2023-01-28T05:00:29.677Z,18.07
2023-01-28T05:02:55.814Z,18.63
2023-01-28T05:05:21.925Z,16.30
2023-01-28T05:07:51.344Z,17.77
2023-01-28T05:10:18.542Z,17.43
2023-01-28T05:12:45.648Z,14.40
2023-01-28T05:15:11.748Z,15.40
2023-01-28T05:17:37.990Z,16.13
2023-01-28T05:20:05.478Z,16.97
2023-01-28T05:22:31.608Z,16.63
2023-01-28T05:24:57.803Z,16.33
2023-01-28T05:27:23.997Z,16.77
2023-01-28T05:29:50.759Z,20.97
2023-01-28T05:32:16.890Z,16.60
2023-01-28T05:34:43.077Z,20.93
2023-01-28T05:37:09.201Z,17.60
2023-01-28T05:39:35.476Z,24.87
2023-01-28T05:42:01.573Z,20.13
2023-01-28T05:44:27.734Z,17.50
2023-01-28T05:46:54.485Z,20.47
2023-01-28T05:49:21.419Z,17.53
2023-01-28T05:51:47.655Z,17.80
2023-01-28T05:54:13.788Z,21.37
2023-01-28T05:56:40.088Z,16.47
2023-01-28T05:59:06.658Z,16.43
2023-01-28T06:01:32.818Z,15.73
2023-01-28T06:03:59.720Z,18.10
2023-01-28T06:06:25.814Z,19.80
2023-01-28T06:08:51.910Z,15.97
2023-01-28T06:11:19.865Z,14.73
2023-01-28T06:13:46.191Z,16.50
2023-01-28T06:16:12.369Z,12.67
2023-01-28T06:18:40.538Z,16.27
2023-01-28T06:21:07.669Z,14.10
2023-01-28T06:23:33.777Z,15.50
2023-01-28T06:26:00.032Z,14.93
2023-01-28T06:28:26.218Z,15.73
2023-01-28T06:30:52.807Z,14.97
2023-01-28T06:33:19.549Z,13.60
2023-01-28T06:35:46.055Z,15.87
2023-01-28T06:38:13.016Z,13.47
2023-01-28T06:40:39.466Z,15.90
2023-01-28T06:43:06.113Z,13.37
2023-01-28T06:45:32.651Z,16.13
2023-01-28T06:47:59.096Z,16.23
2023-01-28T06:50:25.238Z,13.67
2023-01-28T06:52:51.389Z,17.37
2023-01-28T06:55:18.136Z,13.13
2023-01-28T06:57:44.785Z,19.23
2023-01-28T07:00:12.313Z,15.37
2023-01-28T07:02:38.863Z,13.90
2023-01-28T07:05:05.819Z,14.70
2023-01-28T07:07:32.089Z,12.77
2023-01-28T07:09:58.185Z,16.40
2023-01-28T07:12:24.925Z,11.73
2023-01-28T07:14:51.069Z,11.37
2023-01-28T07:17:17.259Z,12.80
2023-01-28T07:19:43.397Z,16.03
2023-01-28T07:22:09.531Z,10.33
2023-01-28T07:24:35.633Z,11.07
2023-01-28T07:27:02.892Z,15.57
2023-01-28T07:29:29.704Z,10.70
2023-01-28T07:31:55.942Z,12.73
2023-01-28T07:34:22.113Z,14.37
2023-01-28T07:36:48.232Z,11.37
2023-01-28T07:39:14.331Z,11.90
2023-01-28T07:41:40.536Z,11.63
2023-01-28T07:44:06.787Z,14.40
2023-01-28T07:46:33.665Z,13.43
2023-01-28T07:48:59.776Z,14.43
2023-01-28T07:51:25.881Z,18.23
2023-01-28T07:53:52.020Z,14.57
2023-01-28T07:56:18.211Z,14.87
2023-01-28T07:58:44.316Z,15.70
2023-01-28T08:01:10.644Z,15.60
2023-01-28T08:03:37.435Z,15.73
2023-01-28T08:06:04.190Z,17.07
2023-01-28T08:08:30.347Z,18.67
2023-01-28T08:10:56.496Z,15.97
2023-01-28T08:13:22.652Z,15.47
2023-01-28T08:15:48.858Z,16.73
2023-01-28T08:18:16.579Z,18.10
2023-01-28T08:20:45.599Z,23.03
2023-01-28T08:23:13.336Z,18.10
2023-01-28T08:25:39.500Z,20.17
2023-01-28T08:28:06.395Z,19.47
2023-01-28T08:30:32.615Z,21.53
2023-01-28T08:32:59.499Z,22.03
2023-01-28T08:35:26.526Z,22.53
2023-01-28T08:37:53.422Z,26.90
2023-01-28T08:40:20.294Z,19.37
2023-01-28T08:42:47.293Z,22.07
2023-01-28T08:45:13.969Z,20.00
2023-01-28T08:47:47.333Z,17.83
2023-01-28T08:50:13.854Z,19.03
2023-01-28T08:52:43.369Z,19.27
2023-01-28T08:55:10.305Z,18.03
2023-01-28T08:57:36.419Z,16.87
2023-01-28T09:00:07.228Z,16.30
2023-01-28T09:02:33.334Z,17.93
2023-01-28T09:04:59.609Z,18.57
2023-01-28T09:07:25.783Z,17.47
2023-01-28T09:09:51.912Z,18.67
2023-01-28T09:12:18.663Z,20.50
2023-01-28T09:14:44.792Z,16.83
2023-01-28T09:17:10.911Z,15.83
2023-01-28T09:19:37.020Z,18.43
2023-01-28T09:22:03.278Z,14.23
2023-01-28T09:24:29.592Z,17.47
2023-01-28T09:26:56.273Z,16.87
2023-01-28T09:29:23.030Z,15.40
2023-01-28T09:31:49.202Z,13.00
2023-01-28T09:34:15.354Z,12.67
2023-01-28T09:36:41.517Z,15.77
2023-01-28T09:39:07.793Z,15.23
2023-01-28T09:41:42.221Z,15.73
2023-01-28T09:44:22.097Z,13.23
2023-01-28T09:46:49.000Z,16.50
2023-01-28T09:49:19.892Z,16.27
2023-01-28T09:51:49.433Z,15.77
2023-01-28T09:54:24.404Z,16.07
2023-01-28T09:56:54.452Z,14.47
2023-01-28T09:59:21.865Z,16.43
2023-01-28T10:01:54.507Z,14.77
2023-01-28T10:04:41.997Z,12.53
2023-01-28T10:07:18.221Z,14.27
2023-01-28T10:09:48.618Z,15.33
2023-01-28T10:12:28.973Z,12.00
2023-01-28T10:15:20.219Z,11.03
2023-01-28T10:17:48.543Z,12.90
2023-01-28T10:20:20.149Z,13.03
2023-01-28T10:22:49.381Z,14.83
2023-01-28T10:25:18.536Z,20.40
2023-01-28T10:27:45.116Z,17.83
2023-01-28T10:30:17.694Z,13.17
2023-01-28T10:32:49.733Z,13.77
2023-01-28T10:35:15.877Z,13.50
2023-01-28T10:37:42.133Z,12.93
2023-01-28T10:40:14.106Z,16.27
2023-01-28T10:42:40.391Z,11.27
2023-01-28T10:45:08.664Z,14.27
2023-01-28T10:47:38.473Z,18.97
2023-01-28T10:50:06.375Z,19.20
2023-01-28T10:52:32.501Z,22.97
2023-01-28T10:54:59.825Z,19.97
2023-01-28T10:57:26.041Z,17.83
2023-01-28T10:59:52.161Z,16.40
2023-01-28T11:02:26.622Z,20.87
2023-01-28T11:05:01.164Z,20.10
2023-01-28T11:07:28.122Z,18.93
2023-01-28T11:09:54.247Z,18.93
2023-01-28T11:12:22.254Z,22.43
2023-01-28T11:14:52.045Z,23.37
2023-01-28T11:17:19.621Z,19.57
2023-01-28T11:19:45.992Z,19.40
2023-01-28T11:22:22.923Z,17.57
2023-01-28T11:24:49.948Z,18.07
2023-01-28T11:27:18.162Z,18.13
2023-01-28T11:29:44.762Z,16.87
2023-01-28T11:32:18.482Z,17.67
2023-01-28T11:34:49.261Z,17.30
2023-01-28T11:37:15.727Z,19.27
2023-01-28T11:39:42.391Z,22.97
2023-01-28T11:42:16.135Z,20.97
2023-01-28T11:44:42.682Z,22.60
2023-01-28T11:47:19.261Z,18.47
2023-01-28T11:50:04.325Z,17.10
2023-01-28T11:53:02.668Z,18.43
2023-01-28T11:55:34.081Z,17.37
2023-01-28T11:58:08.920Z,20.30
2023-01-28T12:00:38.457Z,20.37
2023-01-28T12:03:27.225Z,21.10
2023-01-28T12:05:55.014Z,19.20
2023-01-28T12:08:24.152Z,20.67
2023-01-28T12:11:09.306Z,19.63
2023-01-28T12:13:51.145Z,21.13
2023-01-28T12:16:27.477Z,18.40
2023-01-28T12:19:18.870Z,18.80
2023-01-28T12:21:57.732Z,22.27
2023-01-28T12:24:35.084Z,20.83
2023-01-28T12:27:07.360Z,24.53
2023-01-28T12:29:40.273Z,18.83
2023-01-28T12:32:17.773Z,20.67
2023-01-28T12:34:53.729Z,19.53
2023-01-28T12:37:25.284Z,20.20
2023-01-28T12:40:01.301Z,16.17
2023-01-28T12:42:33.378Z,16.03
2023-01-28T12:45:04.844Z,18.23
2023-01-28T12:47:35.025Z,17.83
2023-01-28T12:50:04.313Z,16.23
2023-01-28T12:52:33.627Z,19.53
2023-01-28T12:55:02.485Z,19.70
2023-01-28T12:57:30.709Z,20.47
2023-01-28T13:00:05.131Z,16.77
2023-01-28T13:02:34.861Z,19.33
2023-01-28T13:05:05.558Z,14.63
2023-01-28T13:07:39.188Z,17.53
2023-01-28T13:10:09.594Z,14.40
2023-01-28T13:12:38.785Z,16.97
2023-01-28T13:15:11.449Z,18.40
2023-01-28T13:17:37.565Z,19.43
2023-01-28T13:20:13.894Z,18.93
2023-01-28T13:22:40.013Z,14.43
2023-01-28T13:25:19.026Z,16.60
2023-01-28T13:27:54.859Z,16.23
2023-01-28T13:30:27.584Z,19.87
2023-01-28T13:33:00.119Z,24.87
2023-01-28T13:35:34.373Z,16.70
2023-01-28T13:38:07.621Z,20.03
2023-01-28T13:40:33.992Z,17.57
2023-01-28T13:43:03.364Z,15.63
2023-01-28T13:45:31.409Z,14.90
2023-01-28T13:48:02.159Z,15.07
2023-01-28T13:50:36.911Z,15.73
2023-01-28T13:53:07.156Z,22.03
2023-01-28T13:55:44.199Z,20.70
2023-01-28T13:58:44.097Z,15.83
2023-01-28T14:01:56.119Z,15.83
2023-01-28T14:04:45.903Z,17.67
2023-01-28T14:07:40.433Z,15.07
2023-01-28T14:10:17.738Z,16.87
2023-01-28T14:12:55.356Z,16.17
2023-01-28T14:15:54.999Z,19.73
2023-01-28T14:18:26.085Z,17.37
2023-01-28T14:20:53.106Z,16.00
2023-01-28T14:23:21.204Z,23.90
2023-01-28T14:25:58.920Z,15.17
2023-01-28T14:28:34.083Z,19.13
2023-01-28T14:31:04.835Z,16.93
2023-01-28T14:33:32.137Z,17.13
2023-01-28T14:35:58.284Z,16.17
2023-01-28T14:38:24.521Z,18.20
2023-01-28T14:40:51.217Z,18.20
2023-01-28T14:43:20.438Z,18.23
2023-01-28T14:45:58.262Z,17.87
2023-01-28T14:48:25.173Z,16.30
2023-01-28T14:51:14.811Z,18.90
2023-01-28T14:54:04.462Z,21.80
2023-01-28T14:56:37.985Z,19.13
2023-01-28T14:59:12.151Z,21.67
2023-01-28T15:01:44.019Z,22.53
2023-01-28T15:04:23.094Z,20.93
2023-01-28T15:06:50.349Z,22.93
2023-01-28T15:09:16.465Z,20.53
2023-01-28T15:11:43.916Z,18.33
2023-01-28T15:14:14.722Z,25.93
2023-01-28T15:16:40.947Z,18.03
2023-01-28T15:19:08.913Z,20.37
2023-01-28T15:21:35.157Z,17.30
2023-01-28T15:24:02.468Z,23.57
2023-01-28T15:26:31.656Z,17.27
2023-01-28T15:28:58.135Z,18.10
2023-01-28T15:31:25.986Z,19.97
2023-01-28T15:33:59.953Z,20.10
2023-01-28T15:36:26.282Z,16.03
2023-01-28T15:38:52.705Z,17.97
2023-01-28T15:41:20.985Z,18.77
2023-01-28T15:43:48.865Z,23.57
2023-01-28T15:46:15.024Z,23.03
2023-01-28T15:48:42.497Z,22.10
2023-01-28T15:51:18.158Z,21.97
2023-01-28T15:53:46.290Z,21.77
2023-01-28T15:56:14.014Z,20.37
2023-01-28T15:58:41.010Z,17.27
2023-01-28T16:01:15.831Z,21.50
2023-01-28T16:03:44.182Z,18.57
2023-01-28T16:06:12.690Z,24.80
2023-01-28T16:08:40.586Z,26.43
2023-01-28T16:11:07.306Z,29.03
2023-01-28T16:13:34.093Z,30.73
2023-01-28T16:16:03.087Z,32.27
2023-01-28T16:18:36.877Z,39.67
2023-01-28T16:21:04.344Z,46.53
2023-01-28T16:23:30.501Z,34.87
2023-01-28T16:26:01.162Z,42.17
2023-01-28T16:28:28.682Z,41.67
2023-01-28T16:30:55.027Z,36.03
2023-01-28T16:33:21.802Z,38.13
2023-01-28T16:36:06.266Z,43.03
2023-01-28T16:38:33.714Z,33.30
2023-01-28T16:40:59.838Z,31.77
2023-01-28T16:43:26.082Z,29.43
2023-01-28T16:45:52.191Z,31.97
2023-01-28T16:48:18.307Z,34.67
2023-01-28T16:50:46.088Z,29.13
2023-01-28T16:53:19.281Z,32.00
2023-01-28T16:55:45.561Z,37.50
2023-01-28T16:58:12.250Z,34.43
2023-01-28T17:00:38.603Z,42.30
2023-01-28T17:03:05.111Z,41.93
2023-01-28T17:05:31.223Z,41.90
2023-01-28T17:07:58.568Z,39.90
2023-01-28T17:10:25.123Z,42.27
2023-01-28T17:12:51.414Z,41.93
2023-01-28T17:15:18.022Z,39.33
2023-01-28T17:17:47.182Z,47.60
2023-01-28T17:20:13.737Z,36.37
2023-01-28T17:22:39.928Z,39.13
2023-01-28T17:25:07.426Z,38.93
2023-01-28T17:27:34.258Z,38.63
2023-01-28T17:30:00.665Z,37.73
2023-01-28T17:32:26.912Z,37.70
2023-01-28T17:34:53.017Z,42.73
2023-01-28T17:37:19.193Z,36.97
2023-01-28T17:39:45.308Z,36.33
2023-01-28T17:42:12.352Z,39.80
2023-01-28T17:44:38.562Z,36.40
2023-01-28T17:47:04.850Z,37.53
2023-01-28T17:49:31.056Z,40.30
2023-01-28T17:51:57.223Z,44.17
2023-01-28T17:54:23.803Z,44.07
2023-01-28T17:56:49.959Z,40.13
2023-01-28T17:59:17.685Z,40.60
2023-01-28T18:01:44.360Z,53.13
2023-01-28T18:04:12.216Z,43.07
2023-01-28T18:06:38.352Z,54.80
2023-01-28T18:09:04.906Z,64.13
2023-01-28T18:11:32.172Z,56.13
2023-01-28T18:13:58.487Z,55.13
2023-01-28T18:16:25.325Z,51.03
2023-01-28T18:18:51.465Z,54.57
2023-01-28T18:21:22.938Z,59.97
2023-01-28T18:23:51.373Z,55.30
2023-01-28T18:26:17.706Z,62.17
2023-01-28T18:28:43.895Z,55.13
2023-01-28T18:31:10.154Z,56.20
2023-01-28T18:33:36.922Z,52.80
2023-01-28T18:36:05.235Z,54.10
2023-01-28T18:38:31.353Z,55.60
2023-01-28T18:40:57.528Z,55.50
2023-01-28T18:43:23.848Z,57.37
2023-01-28T18:45:51.299Z,55.13
2023-01-28T18:48:17.502Z,57.07
2023-01-28T18:50:49.599Z,53.60
2023-01-28T18:53:15.836Z,58.00
2023-01-28T18:55:42.001Z,54.20
2023-01-28T18:58:08.154Z,57.07
2023-01-28T19:00:34.247Z,54.40
2023-01-28T19:03:01.331Z,60.57
2023-01-28T19:05:27.744Z,57.73
2023-01-28T19:07:54.580Z,59.37
2023-01-28T19:10:23.088Z,59.90
2023-01-28T19:12:49.233Z,59.30
2023-01-28T19:15:15.565Z,59.17
2023-01-28T19:17:41.945Z,54.00
2023-01-28T19:20:09.691Z,55.80
2023-01-28T19:22:35.790Z,60.00
2023-01-28T19:25:03.542Z,48.77
2023-01-28T19:27:29.740Z,53.30
2023-01-28T19:29:55.919Z,57.53
2023-01-28T19:32:22.078Z,53.63
2023-01-28T19:34:48.249Z,48.27
2023-01-28T19:37:14.856Z,49.63
2023-01-28T19:39:41.052Z,51.50
2023-01-28T19:42:07.919Z,50.63
2023-01-28T19:44:34.839Z,53.67
2023-01-28T19:47:02.247Z,48.47
2023-01-28T19:49:28.973Z,51.67
2023-01-28T19:51:55.156Z,56.13
2023-01-28T19:54:21.453Z,52.80
2023-01-28T19:56:48.238Z,47.00
2023-01-28T19:59:15.386Z,52.07
2023-01-28T20:01:41.799Z,52.60
2023-01-28T20:04:08.333Z,48.50
2023-01-28T20:06:35.147Z,66.00
2023-01-28T20:09:03.589Z,86.23
2023-01-28T20:11:29.740Z,75.57
2023-01-28T20:13:56.096Z,73.93
2023-01-28T20:16:24.574Z,74.10
2023-01-28T20:18:51.606Z,76.17
2023-01-28T20:21:18.486Z,70.43
2023-01-28T20:23:44.647Z,70.83
2023-01-28T20:26:10.823Z,64.50
2023-01-28T20:28:37.023Z,61.20
2023-01-28T20:31:04.466Z,67.20
2023-01-28T20:33:31.373Z,65.60
2023-01-28T20:36:00.469Z,65.60
2023-01-28T20:38:26.587Z,66.70
2023-01-28T20:40:52.845Z,64.23
2023-01-28T20:43:19.452Z,60.40
2023-01-28T20:45:45.552Z,55.93
2023-01-28T20:48:12.084Z,55.60
2023-01-28T20:50:38.966Z,62.00
2023-01-28T20:53:05.062Z,58.07
2023-01-28T20:55:31.485Z,53.20
2023-01-28T20:57:57.723Z,57.70
2023-01-28T21:00:23.923Z,64.70
2023-01-28T21:02:50.188Z,56.77
2023-01-28T21:05:16.590Z,61.33
2023-01-28T21:07:43.462Z,61.90
2023-01-28T21:10:11.115Z,57.73
2023-01-28T21:12:37.271Z,61.70
2023-01-28T21:15:03.934Z,63.07
2023-01-28T21:17:31.078Z,61.33
2023-01-28T21:19:57.335Z,56.17
2023-01-28T21:22:23.544Z,70.23
2023-01-28T21:24:50.477Z,60.07
2023-01-28T21:27:16.576Z,57.27
2023-01-28T21:29:42.824Z,57.20
2023-01-28T21:32:09.125Z,59.60
2023-01-28T21:34:35.302Z,60.20
2023-01-28T21:37:01.430Z,57.93
2023-01-28T21:39:27.600Z,64.07
2023-01-28T21:49:50.146Z,53.83
2023-01-28T21:52:16.299Z,60.63
2023-01-28T21:54:42.385Z,56.30
2023-01-28T21:57:08.704Z,61.50
2023-01-28T22:11:02.091Z,59.60
2023-01-28T22:17:17.917Z,59.93
2023-01-28T22:19:47.226Z,92.50
2023-01-28T22:22:13.568Z,80.40
2023-01-28T22:24:39.687Z,68.87
2023-01-28T22:35:20.407Z,59.57
2023-01-28T22:37:47.156Z,61.30
2023-01-28T22:40:13.810Z,52.13
2023-01-28T22:42:40.049Z,54.73
2023-01-28T22:45:07.680Z,58.30
2023-01-28T22:47:33.811Z,59.10
2023-01-28T22:49:59.920Z,61.87
2023-01-28T22:52:26.106Z,57.73
2023-01-28T22:54:52.917Z,57.20
2023-01-28T22:57:19.041Z,55.57
2023-01-28T22:59:59.228Z,57.43
2023-01-28T23:02:26.469Z,55.90
2023-01-28T23:04:52.705Z,60.10
2023-01-28T23:07:18.834Z,56.83
2023-01-28T23:09:44.936Z,59.07
2023-01-28T23:12:11.768Z,63.33
2023-01-28T23:15:04.701Z,53.27
2023-01-28T23:17:49.448Z,51.87
2023-01-28T23:20:34.378Z,60.70
2023-01-28T23:23:18.759Z,55.37
2023-01-28T23:25:44.982Z,53.77
2023-01-28T23:28:11.724Z,65.97
2023-01-28T23:30:38.107Z,65.20
2023-01-28T23:33:05.829Z,59.37
2023-01-28T23:35:32.051Z,57.03
2023-01-28T23:37:58.277Z,63.00
2023-01-28T23:40:26.294Z,60.77
2023-01-28T23:42:53.323Z,58.53
2023-01-28T23:45:20.906Z,56.30
2023-01-28T23:47:47.553Z,60.10
2023-01-28T23:50:14.380Z,59.13
2023-01-28T23:52:40.676Z,56.17
2023-01-28T23:55:07.554Z,56.23
2023-01-28T23:57:35.264Z,57.97
